sensor_id;sensor_type;location;lat;lon;timestamp;P1;durP1;ratioP1;P2;durP2;ratioP2
77449;SDS011;66536;53.150;18.172;2023-05-07T00:01:57;52.20;;;25.40;;
77449;SDS011;66536;53.150;18.172;2023-05-07T00:04:23;42.80;;;22.80;;
77449;SDS011;66536;53.150;18.172;2023-05-07T00:06:49;30.90;;;16.90;;
77449;SDS011;66536;53.150;18.172;2023-05-07T00:09:15;21.00;;;11.70;;
77449;SDS011;66536;53.150;18.172;2023-05-07T00:11:43;23.40;;;10.60;;
77449;SDS011;66536;53.150;18.172;2023-05-07T00:14:09;24.30;;;12.40;;
77449;SDS011;66536;53.150;18.172;2023-05-07T00:16:35;31.40;;;16.10;;
77449;SDS011;66536;53.150;18.172;2023-05-07T00:19:01;25.40;;;13.30;;
77449;SDS011;66536;53.150;18.172;2023-05-07T00:21:27;21.10;;;11.70;;
77449;SDS011;66536;53.150;18.172;2023-05-07T00:23:53;34.60;;;13.60;;
77449;SDS011;66536;53.150;18.172;2023-05-07T00:26:22;26.40;;;12.10;;
77449;SDS011;66536;53.150;18.172;2023-05-07T00:28:48;23.00;;;11.20;;
77449;SDS011;66536;53.150;18.172;2023-05-07T00:31:14;18.00;;;8.30;;
77449;SDS011;66536;53.150;18.172;2023-05-07T00:33:40;15.20;;;7.80;;
77449;SDS011;66536;53.150;18.172;2023-05-07T00:36:07;16.10;;;8.50;;
77449;SDS011;66536;53.150;18.172;2023-05-07T00:38:33;13.00;;;7.50;;
77449;SDS011;66536;53.150;18.172;2023-05-07T00:40:59;15.80;;;8.00;;
77449;SDS011;66536;53.150;18.172;2023-05-07T00:43:25;18.00;;;8.60;;
77449;SDS011;66536;53.150;18.172;2023-05-07T00:45:51;18.60;;;9.20;;
77449;SDS011;66536;53.150;18.172;2023-05-07T00:48:17;18.10;;;10.30;;
77449;SDS011;66536;53.150;18.172;2023-05-07T00:50:44;19.30;;;10.00;;
77449;SDS011;66536;53.150;18.172;2023-05-07T00:53:11;19.20;;;10.30;;
77449;SDS011;66536;53.150;18.172;2023-05-07T00:55:38;16.70;;;9.80;;
77449;SDS011;66536;53.150;18.172;2023-05-07T00:58:04;19.90;;;10.70;;
77449;SDS011;66536;53.150;18.172;2023-05-07T01:00:32;24.70;;;11.80;;
77449;SDS011;66536;53.150;18.172;2023-05-07T01:02:58;26.50;;;13.20;;
77449;SDS011;66536;53.150;18.172;2023-05-07T01:05:24;27.30;;;12.50;;
77449;SDS011;66536;53.150;18.172;2023-05-07T01:07:53;26.10;;;13.10;;
77449;SDS011;66536;53.150;18.172;2023-05-07T01:10:21;22.70;;;12.00;;
77449;SDS011;66536;53.150;18.172;2023-05-07T01:12:48;29.60;;;15.10;;
77449;SDS011;66536;53.150;18.172;2023-05-07T01:15:15;59.20;;;26.30;;
77449;SDS011;66536;53.150;18.172;2023-05-07T01:17:42;101.90;;;43.70;;
77449;SDS011;66536;53.150;18.172;2023-05-07T01:20:14;70.60;;;34.10;;
77449;SDS011;66536;53.150;18.172;2023-05-07T01:22:41;40.30;;;20.50;;
77449;SDS011;66536;53.150;18.172;2023-05-07T01:25:09;33.50;;;17.00;;
77449;SDS011;66536;53.150;18.172;2023-05-07T01:27:38;42.90;;;21.60;;
77449;SDS011;66536;53.150;18.172;2023-05-07T01:30:04;81.90;;;43.30;;
77449;SDS011;66536;53.150;18.172;2023-05-07T01:32:33;65.30;;;33.00;;
77449;SDS011;66536;53.150;18.172;2023-05-07T01:35:05;56.70;;;26.90;;
77449;SDS011;66536;53.150;18.172;2023-05-07T01:37:35;55.50;;;26.80;;
77449;SDS011;66536;53.150;18.172;2023-05-07T01:40:01;35.20;;;17.60;;
77449;SDS011;66536;53.150;18.172;2023-05-07T01:42:29;35.70;;;15.50;;
77449;SDS011;66536;53.150;18.172;2023-05-07T01:44:55;35.70;;;16.40;;
77449;SDS011;66536;53.150;18.172;2023-05-07T01:47:21;39.60;;;15.50;;
77449;SDS011;66536;53.150;18.172;2023-05-07T01:49:49;28.80;;;16.10;;
77449;SDS011;66536;53.150;18.172;2023-05-07T01:52:16;31.80;;;13.90;;
77449;SDS011;66536;53.150;18.172;2023-05-07T01:54:43;22.50;;;11.00;;
77449;SDS011;66536;53.150;18.172;2023-05-07T01:57:09;30.80;;;15.70;;
77449;SDS011;66536;53.150;18.172;2023-05-07T01:59:35;29.40;;;15.20;;
77449;SDS011;66536;53.150;18.172;2023-05-07T02:02:01;25.90;;;14.20;;
77449;SDS011;66536;53.150;18.172;2023-05-07T02:04:27;26.40;;;15.10;;
77449;SDS011;66536;53.150;18.172;2023-05-07T02:06:54;26.10;;;14.50;;
77449;SDS011;66536;53.150;18.172;2023-05-07T02:09:21;25.10;;;12.90;;
77449;SDS011;66536;53.150;18.172;2023-05-07T02:11:49;25.80;;;13.00;;
77449;SDS011;66536;53.150;18.172;2023-05-07T02:14:16;31.10;;;14.10;;
77449;SDS011;66536;53.150;18.172;2023-05-07T02:16:42;33.50;;;17.10;;
77449;SDS011;66536;53.150;18.172;2023-05-07T02:19:10;28.90;;;14.80;;
77449;SDS011;66536;53.150;18.172;2023-05-07T02:21:36;32.20;;;16.40;;
77449;SDS011;66536;53.150;18.172;2023-05-07T02:24:02;34.30;;;16.90;;
77449;SDS011;66536;53.150;18.172;2023-05-07T02:26:28;31.50;;;14.50;;
77449;SDS011;66536;53.150;18.172;2023-05-07T02:28:54;27.40;;;15.50;;
77449;SDS011;66536;53.150;18.172;2023-05-07T02:31:20;28.70;;;15.20;;
77449;SDS011;66536;53.150;18.172;2023-05-07T02:33:46;32.00;;;17.90;;
77449;SDS011;66536;53.150;18.172;2023-05-07T02:36:12;34.50;;;16.20;;
77449;SDS011;66536;53.150;18.172;2023-05-07T02:38:43;28.80;;;14.60;;
77449;SDS011;66536;53.150;18.172;2023-05-07T02:41:09;28.00;;;17.10;;
77449;SDS011;66536;53.150;18.172;2023-05-07T02:43:36;30.40;;;19.00;;
77449;SDS011;66536;53.150;18.172;2023-05-07T02:46:02;29.00;;;15.70;;
77449;SDS011;66536;53.150;18.172;2023-05-07T02:48:30;26.80;;;14.90;;
77449;SDS011;66536;53.150;18.172;2023-05-07T02:50:56;26.40;;;14.40;;
77449;SDS011;66536;53.150;18.172;2023-05-07T02:53:23;29.50;;;12.60;;
77449;SDS011;66536;53.150;18.172;2023-05-07T02:55:53;21.50;;;12.30;;
77449;SDS011;66536;53.150;18.172;2023-05-07T02:58:24;21.00;;;12.20;;
77449;SDS011;66536;53.150;18.172;2023-05-07T03:00:51;34.00;;;18.10;;
77449;SDS011;66536;53.150;18.172;2023-05-07T03:03:26;50.20;;;21.90;;
77449;SDS011;66536;53.150;18.172;2023-05-07T03:05:51;50.30;;;22.70;;
77449;SDS011;66536;53.150;18.172;2023-05-07T03:08:17;44.00;;;19.80;;
77449;SDS011;66536;53.150;18.172;2023-05-07T03:10:43;43.30;;;20.30;;
77449;SDS011;66536;53.150;18.172;2023-05-07T03:13:09;41.50;;;19.20;;
77449;SDS011;66536;53.150;18.172;2023-05-07T03:15:56;35.30;;;17.60;;
77449;SDS011;66536;53.150;18.172;2023-05-07T03:18:22;30.60;;;16.00;;
77449;SDS011;66536;53.150;18.172;2023-05-07T03:20:48;31.10;;;14.10;;
77449;SDS011;66536;53.150;18.172;2023-05-07T03:23:14;28.00;;;14.50;;
77449;SDS011;66536;53.150;18.172;2023-05-07T03:25:40;29.60;;;15.20;;
77449;SDS011;66536;53.150;18.172;2023-05-07T03:28:06;26.50;;;14.80;;
77449;SDS011;66536;53.150;18.172;2023-05-07T03:30:39;25.70;;;15.60;;
77449;SDS011;66536;53.150;18.172;2023-05-07T03:33:05;28.40;;;16.60;;
77449;SDS011;66536;53.150;18.172;2023-05-07T03:35:31;27.40;;;15.60;;
77449;SDS011;66536;53.150;18.172;2023-05-07T03:37:58;24.80;;;13.80;;
77449;SDS011;66536;53.150;18.172;2023-05-07T03:40:26;26.80;;;14.30;;
77449;SDS011;66536;53.150;18.172;2023-05-07T03:42:52;26.60;;;14.50;;
77449;SDS011;66536;53.150;18.172;2023-05-07T03:45:19;24.50;;;13.50;;
77449;SDS011;66536;53.150;18.172;2023-05-07T03:47:51;25.30;;;13.50;;
77449;SDS011;66536;53.150;18.172;2023-05-07T03:50:18;24.40;;;14.30;;
77449;SDS011;66536;53.150;18.172;2023-05-07T03:52:45;22.40;;;13.10;;
77449;SDS011;66536;53.150;18.172;2023-05-07T03:55:12;24.90;;;14.10;;
77449;SDS011;66536;53.150;18.172;2023-05-07T03:57:38;25.40;;;13.40;;
77449;SDS011;66536;53.150;18.172;2023-05-07T04:00:04;25.00;;;13.10;;
77449;SDS011;66536;53.150;18.172;2023-05-07T04:02:46;20.80;;;11.90;;
77449;SDS011;66536;53.150;18.172;2023-05-07T04:05:13;28.20;;;13.40;;
77449;SDS011;66536;53.150;18.172;2023-05-07T04:07:40;23.70;;;12.40;;
77449;SDS011;66536;53.150;18.172;2023-05-07T04:10:08;21.50;;;13.20;;
77449;SDS011;66536;53.150;18.172;2023-05-07T04:12:34;23.50;;;12.50;;
77449;SDS011;66536;53.150;18.172;2023-05-07T04:15:02;23.20;;;12.50;;
77449;SDS011;66536;53.150;18.172;2023-05-07T04:17:28;22.60;;;12.40;;
77449;SDS011;66536;53.150;18.172;2023-05-07T04:19:54;22.90;;;13.10;;
77449;SDS011;66536;53.150;18.172;2023-05-07T04:22:20;21.10;;;12.20;;
77449;SDS011;66536;53.150;18.172;2023-05-07T04:24:46;23.70;;;14.00;;
77449;SDS011;66536;53.150;18.172;2023-05-07T04:27:13;20.30;;;12.10;;
77449;SDS011;66536;53.150;18.172;2023-05-07T04:29:39;23.30;;;13.70;;
77449;SDS011;66536;53.150;18.172;2023-05-07T04:32:09;27.30;;;12.70;;
77449;SDS011;66536;53.150;18.172;2023-05-07T04:34:37;22.00;;;11.70;;
77449;SDS011;66536;53.150;18.172;2023-05-07T04:37:03;19.10;;;12.30;;
77449;SDS011;66536;53.150;18.172;2023-05-07T04:39:30;18.30;;;11.80;;
77449;SDS011;66536;53.150;18.172;2023-05-07T04:41:56;18.30;;;10.90;;
77449;SDS011;66536;53.150;18.172;2023-05-07T04:44:23;20.30;;;12.40;;
77449;SDS011;66536;53.150;18.172;2023-05-07T04:46:49;26.50;;;13.50;;
77449;SDS011;66536;53.150;18.172;2023-05-07T04:49:15;21.60;;;12.00;;
77449;SDS011;66536;53.150;18.172;2023-05-07T04:51:41;11.90;;;6.60;;
77449;SDS011;66536;53.150;18.172;2023-05-07T04:54:09;20.60;;;11.30;;
77449;SDS011;66536;53.150;18.172;2023-05-07T04:56:35;20.60;;;11.40;;
77449;SDS011;66536;53.150;18.172;2023-05-07T04:59:01;15.40;;;8.40;;
77449;SDS011;66536;53.150;18.172;2023-05-07T05:01:28;18.50;;;11.10;;
77449;SDS011;66536;53.150;18.172;2023-05-07T05:03:54;15.90;;;9.90;;
77449;SDS011;66536;53.150;18.172;2023-05-07T05:06:21;19.70;;;11.70;;
77449;SDS011;66536;53.150;18.172;2023-05-07T05:08:47;20.30;;;11.50;;
77449;SDS011;66536;53.150;18.172;2023-05-07T05:11:13;21.00;;;11.60;;
77449;SDS011;66536;53.150;18.172;2023-05-07T05:13:39;24.00;;;10.70;;
77449;SDS011;66536;53.150;18.172;2023-05-07T05:16:11;18.30;;;10.90;;
77449;SDS011;66536;53.150;18.172;2023-05-07T05:18:37;17.40;;;10.30;;
77449;SDS011;66536;53.150;18.172;2023-05-07T05:21:04;16.80;;;10.00;;
77449;SDS011;66536;53.150;18.172;2023-05-07T05:23:31;29.00;;;20.50;;
77449;SDS011;66536;53.150;18.172;2023-05-07T05:25:58;26.90;;;18.10;;
77449;SDS011;66536;53.150;18.172;2023-05-07T05:28:25;17.80;;;12.00;;
77449;SDS011;66536;53.150;18.172;2023-05-07T05:30:51;16.40;;;9.70;;
77449;SDS011;66536;53.150;18.172;2023-05-07T05:33:18;16.20;;;8.80;;
77449;SDS011;66536;53.150;18.172;2023-05-07T05:35:44;16.40;;;9.80;;
77449;SDS011;66536;53.150;18.172;2023-05-07T05:38:11;13.20;;;8.70;;
77449;SDS011;66536;53.150;18.172;2023-05-07T05:40:39;15.40;;;8.60;;
77449;SDS011;66536;53.150;18.172;2023-05-07T05:43:05;14.70;;;9.40;;
77449;SDS011;66536;53.150;18.172;2023-05-07T05:45:33;11.80;;;6.90;;
77449;SDS011;66536;53.150;18.172;2023-05-07T05:47:59;15.00;;;9.10;;
77449;SDS011;66536;53.150;18.172;2023-05-07T05:50:25;15.10;;;9.40;;
77449;SDS011;66536;53.150;18.172;2023-05-07T05:52:51;16.40;;;9.90;;
77449;SDS011;66536;53.150;18.172;2023-05-07T05:55:19;20.60;;;9.70;;
77449;SDS011;66536;53.150;18.172;2023-05-07T05:57:45;14.10;;;8.80;;
77449;SDS011;66536;53.150;18.172;2023-05-07T06:00:12;17.00;;;10.30;;
77449;SDS011;66536;53.150;18.172;2023-05-07T06:02:45;18.00;;;9.80;;
77449;SDS011;66536;53.150;18.172;2023-05-07T06:05:13;16.20;;;9.40;;
77449;SDS011;66536;53.150;18.172;2023-05-07T06:07:40;17.60;;;9.90;;
77449;SDS011;66536;53.150;18.172;2023-05-07T06:10:06;15.60;;;9.30;;
77449;SDS011;66536;53.150;18.172;2023-05-07T06:12:33;14.00;;;9.20;;
77449;SDS011;66536;53.150;18.172;2023-05-07T06:14:59;18.60;;;8.90;;
77449;SDS011;66536;53.150;18.172;2023-05-07T06:17:25;14.80;;;7.70;;
77449;SDS011;66536;53.150;18.172;2023-05-07T06:19:51;12.70;;;8.10;;
77449;SDS011;66536;53.150;18.172;2023-05-07T06:22:18;14.10;;;9.40;;
77449;SDS011;66536;53.150;18.172;2023-05-07T06:24:45;7.60;;;4.40;;
77449;SDS011;66536;53.150;18.172;2023-05-07T06:27:12;16.90;;;9.60;;
77449;SDS011;66536;53.150;18.172;2023-05-07T06:29:39;11.20;;;7.00;;
77449;SDS011;66536;53.150;18.172;2023-05-07T06:32:12;15.40;;;8.10;;
77449;SDS011;66536;53.150;18.172;2023-05-07T06:34:40;10.80;;;6.80;;
77449;SDS011;66536;53.150;18.172;2023-05-07T06:37:07;11.70;;;7.30;;
77449;SDS011;66536;53.150;18.172;2023-05-07T06:39:46;12.30;;;7.40;;
77449;SDS011;66536;53.150;18.172;2023-05-07T06:42:12;12.50;;;7.20;;
77449;SDS011;66536;53.150;18.172;2023-05-07T06:44:40;11.30;;;6.40;;
77449;SDS011;66536;53.150;18.172;2023-05-07T06:47:10;11.50;;;6.70;;
77449;SDS011;66536;53.150;18.172;2023-05-07T06:49:38;6.80;;;4.40;;
77449;SDS011;66536;53.150;18.172;2023-05-07T06:52:04;9.10;;;4.60;;
77449;SDS011;66536;53.150;18.172;2023-05-07T06:54:31;6.00;;;3.70;;
77449;SDS011;66536;53.150;18.172;2023-05-07T06:56:57;7.40;;;4.40;;
77449;SDS011;66536;53.150;18.172;2023-05-07T06:59:25;4.10;;;2.60;;
77449;SDS011;66536;53.150;18.172;2023-05-07T07:01:51;5.90;;;3.70;;
77449;SDS011;66536;53.150;18.172;2023-05-07T07:04:18;6.60;;;3.60;;
77449;SDS011;66536;53.150;18.172;2023-05-07T07:06:48;2.90;;;2.00;;
77449;SDS011;66536;53.150;18.172;2023-05-07T07:09:14;5.10;;;3.50;;
77449;SDS011;66536;53.150;18.172;2023-05-07T07:11:40;5.20;;;4.00;;
77449;SDS011;66536;53.150;18.172;2023-05-07T07:14:07;5.80;;;3.80;;
77449;SDS011;66536;53.150;18.172;2023-05-07T07:16:36;5.10;;;3.40;;
77449;SDS011;66536;53.150;18.172;2023-05-07T07:19:02;6.40;;;3.00;;
77449;SDS011;66536;53.150;18.172;2023-05-07T07:21:28;6.50;;;3.20;;
77449;SDS011;66536;53.150;18.172;2023-05-07T07:23:55;7.80;;;3.40;;
77449;SDS011;66536;53.150;18.172;2023-05-07T07:26:21;6.80;;;3.40;;
77449;SDS011;66536;53.150;18.172;2023-05-07T07:28:47;5.80;;;3.00;;
77449;SDS011;66536;53.150;18.172;2023-05-07T07:31:16;3.30;;;2.50;;
77449;SDS011;66536;53.150;18.172;2023-05-07T07:33:42;7.00;;;2.70;;
77449;SDS011;66536;53.150;18.172;2023-05-07T07:36:08;5.70;;;2.60;;
77449;SDS011;66536;53.150;18.172;2023-05-07T07:38:34;4.30;;;2.90;;
77449;SDS011;66536;53.150;18.172;2023-05-07T07:41:01;6.10;;;3.20;;
77449;SDS011;66536;53.150;18.172;2023-05-07T07:43:28;6.30;;;3.00;;
77449;SDS011;66536;53.150;18.172;2023-05-07T07:45:54;4.80;;;2.70;;
77449;SDS011;66536;53.150;18.172;2023-05-07T07:48:20;4.00;;;2.90;;
77449;SDS011;66536;53.150;18.172;2023-05-07T07:50:48;5.50;;;3.90;;
77449;SDS011;66536;53.150;18.172;2023-05-07T07:53:18;6.00;;;2.70;;
77449;SDS011;66536;53.150;18.172;2023-05-07T07:55:44;7.00;;;2.70;;
77449;SDS011;66536;53.150;18.172;2023-05-07T07:58:12;3.60;;;2.60;;
77449;SDS011;66536;53.150;18.172;2023-05-07T08:00:38;5.30;;;2.70;;
77449;SDS011;66536;53.150;18.172;2023-05-07T08:03:04;3.20;;;1.90;;
77449;SDS011;66536;53.150;18.172;2023-05-07T08:05:34;3.90;;;2.40;;
77449;SDS011;66536;53.150;18.172;2023-05-07T08:08:00;5.70;;;2.90;;
77449;SDS011;66536;53.150;18.172;2023-05-07T08:10:29;4.60;;;2.30;;
77449;SDS011;66536;53.150;18.172;2023-05-07T08:13:01;6.10;;;2.90;;
77449;SDS011;66536;53.150;18.172;2023-05-07T08:15:30;6.30;;;2.60;;
77449;SDS011;66536;53.150;18.172;2023-05-07T08:17:57;7.40;;;2.90;;
77449;SDS011;66536;53.150;18.172;2023-05-07T08:20:26;4.10;;;2.50;;
77449;SDS011;66536;53.150;18.172;2023-05-07T08:22:52;4.00;;;2.40;;
77449;SDS011;66536;53.150;18.172;2023-05-07T08:25:18;5.30;;;3.10;;
77449;SDS011;66536;53.150;18.172;2023-05-07T08:27:44;4.60;;;3.00;;
77449;SDS011;66536;53.150;18.172;2023-05-07T08:30:11;4.10;;;2.80;;
77449;SDS011;66536;53.150;18.172;2023-05-07T08:32:37;4.20;;;2.10;;
77449;SDS011;66536;53.150;18.172;2023-05-07T08:35:04;6.10;;;2.40;;
77449;SDS011;66536;53.150;18.172;2023-05-07T08:37:30;3.50;;;1.80;;
77449;SDS011;66536;53.150;18.172;2023-05-07T08:39:56;5.20;;;2.50;;
77449;SDS011;66536;53.150;18.172;2023-05-07T08:42:24;5.30;;;2.30;;
77449;SDS011;66536;53.150;18.172;2023-05-07T08:44:51;8.10;;;2.70;;
77449;SDS011;66536;53.150;18.172;2023-05-07T08:47:22;4.30;;;2.20;;
77449;SDS011;66536;53.150;18.172;2023-05-07T08:49:51;3.80;;;2.40;;
77449;SDS011;66536;53.150;18.172;2023-05-07T08:52:19;3.40;;;2.10;;
77449;SDS011;66536;53.150;18.172;2023-05-07T08:54:46;3.20;;;2.10;;
77449;SDS011;66536;53.150;18.172;2023-05-07T08:57:13;6.30;;;1.80;;
77449;SDS011;66536;53.150;18.172;2023-05-07T08:59:59;5.40;;;2.60;;
77449;SDS011;66536;53.150;18.172;2023-05-07T09:02:25;3.40;;;1.90;;
77449;SDS011;66536;53.150;18.172;2023-05-07T09:04:53;3.40;;;2.10;;
77449;SDS011;66536;53.150;18.172;2023-05-07T09:07:20;4.90;;;2.00;;
77449;SDS011;66536;53.150;18.172;2023-05-07T09:09:47;3.30;;;2.10;;
77449;SDS011;66536;53.150;18.172;2023-05-07T09:12:13;3.60;;;2.30;;
77449;SDS011;66536;53.150;18.172;2023-05-07T09:14:40;8.20;;;2.90;;
77449;SDS011;66536;53.150;18.172;2023-05-07T09:17:06;3.20;;;2.00;;
77449;SDS011;66536;53.150;18.172;2023-05-07T09:19:32;3.80;;;2.50;;
77449;SDS011;66536;53.150;18.172;2023-05-07T09:22:01;4.10;;;2.40;;
77449;SDS011;66536;53.150;18.172;2023-05-07T09:24:32;3.80;;;2.20;;
77449;SDS011;66536;53.150;18.172;2023-05-07T09:27:01;3.20;;;2.60;;
77449;SDS011;66536;53.150;18.172;2023-05-07T09:29:28;4.20;;;2.90;;
77449;SDS011;66536;53.150;18.172;2023-05-07T09:31:56;3.60;;;2.70;;
77449;SDS011;66536;53.150;18.172;2023-05-07T09:34:23;3.90;;;2.70;;
77449;SDS011;66536;53.150;18.172;2023-05-07T09:36:49;8.60;;;3.10;;
77449;SDS011;66536;53.150;18.172;2023-05-07T09:39:16;6.20;;;2.80;;
77449;SDS011;66536;53.150;18.172;2023-05-07T09:41:45;6.00;;;3.30;;
77449;SDS011;66536;53.150;18.172;2023-05-07T09:44:18;6.80;;;3.50;;
77449;SDS011;66536;53.150;18.172;2023-05-07T09:46:50;5.50;;;2.80;;
77449;SDS011;66536;53.150;18.172;2023-05-07T09:49:23;3.40;;;2.50;;
77449;SDS011;66536;53.150;18.172;2023-05-07T09:51:57;3.40;;;2.70;;
77449;SDS011;66536;53.150;18.172;2023-05-07T09:54:25;5.40;;;2.80;;
77449;SDS011;66536;53.150;18.172;2023-05-07T09:56:55;5.00;;;2.90;;
77449;SDS011;66536;53.150;18.172;2023-05-07T09:59:24;4.80;;;2.60;;
77449;SDS011;66536;53.150;18.172;2023-05-07T10:01:54;4.50;;;3.00;;
77449;SDS011;66536;53.150;18.172;2023-05-07T10:04:25;4.10;;;2.70;;
77449;SDS011;66536;53.150;18.172;2023-05-07T10:06:52;4.90;;;2.50;;
77449;SDS011;66536;53.150;18.172;2023-05-07T10:09:21;4.00;;;2.30;;
77449;SDS011;66536;53.150;18.172;2023-05-07T10:11:48;4.10;;;2.30;;
77449;SDS011;66536;53.150;18.172;2023-05-07T10:14:15;3.80;;;2.30;;
77449;SDS011;66536;53.150;18.172;2023-05-07T10:16:43;4.60;;;2.50;;
77449;SDS011;66536;53.150;18.172;2023-05-07T10:19:14;5.10;;;3.00;;
77449;SDS011;66536;53.150;18.172;2023-05-07T10:21:44;3.70;;;2.80;;
77449;SDS011;66536;53.150;18.172;2023-05-07T10:24:21;5.30;;;3.00;;
77449;SDS011;66536;53.150;18.172;2023-05-07T10:26:52;3.40;;;2.60;;
77449;SDS011;66536;53.150;18.172;2023-05-07T10:29:33;3.50;;;2.20;;
77449;SDS011;66536;53.150;18.172;2023-05-07T10:35:06;4.80;;;2.40;;
77449;SDS011;66536;53.150;18.172;2023-05-07T10:37:41;6.50;;;3.00;;
77449;SDS011;66536;53.150;18.172;2023-05-07T10:40:09;4.30;;;2.90;;
77449;SDS011;66536;53.150;18.172;2023-05-07T10:42:36;3.50;;;1.80;;
77449;SDS011;66536;53.150;18.172;2023-05-07T10:45:12;4.30;;;2.20;;
77449;SDS011;66536;53.150;18.172;2023-05-07T10:50:31;5.30;;;3.10;;
77449;SDS011;66536;53.150;18.172;2023-05-07T10:56:23;3.10;;;2.60;;
77449;SDS011;66536;53.150;18.172;2023-05-07T10:58:56;4.90;;;2.70;;
77449;SDS011;66536;53.150;18.172;2023-05-07T11:01:56;6.00;;;2.50;;
77449;SDS011;66536;53.150;18.172;2023-05-07T11:04:32;3.30;;;2.40;;
77449;SDS011;66536;53.150;18.172;2023-05-07T11:07:15;5.60;;;2.50;;
77449;SDS011;66536;53.150;18.172;2023-05-07T11:09:56;5.00;;;2.40;;
77449;SDS011;66536;53.150;18.172;2023-05-07T11:15:38;5.40;;;2.30;;
77449;SDS011;66536;53.150;18.172;2023-05-07T11:18:17;2.70;;;2.20;;
77449;SDS011;66536;53.150;18.172;2023-05-07T11:20:46;4.20;;;2.50;;
77449;SDS011;66536;53.150;18.172;2023-05-07T11:26:29;3.50;;;2.10;;
77449;SDS011;66536;53.150;18.172;2023-05-07T11:28:57;5.10;;;2.50;;
77449;SDS011;66536;53.150;18.172;2023-05-07T11:31:27;4.20;;;2.50;;
77449;SDS011;66536;53.150;18.172;2023-05-07T11:33:54;3.00;;;2.30;;
77449;SDS011;66536;53.150;18.172;2023-05-07T11:36:22;4.00;;;2.30;;
77449;SDS011;66536;53.150;18.172;2023-05-07T11:38:50;3.20;;;2.40;;
77449;SDS011;66536;53.150;18.172;2023-05-07T11:41:16;1.90;;;1.40;;
77449;SDS011;66536;53.150;18.172;2023-05-07T11:46:23;2.70;;;2.10;;
77449;SDS011;66536;53.150;18.172;2023-05-07T11:48:53;2.40;;;2.00;;
77449;SDS011;66536;53.150;18.172;2023-05-07T11:51:20;3.90;;;2.40;;
77449;SDS011;66536;53.150;18.172;2023-05-07T11:53:48;3.90;;;2.10;;
77449;SDS011;66536;53.150;18.172;2023-05-07T11:56:15;3.80;;;2.90;;
77449;SDS011;66536;53.150;18.172;2023-05-07T11:58:44;4.20;;;2.30;;
77449;SDS011;66536;53.150;18.172;2023-05-07T12:01:12;2.90;;;2.20;;
77449;SDS011;66536;53.150;18.172;2023-05-07T12:03:45;3.90;;;2.00;;
77449;SDS011;66536;53.150;18.172;2023-05-07T12:06:12;4.90;;;2.30;;
77449;SDS011;66536;53.150;18.172;2023-05-07T12:08:41;2.80;;;2.30;;
77449;SDS011;66536;53.150;18.172;2023-05-07T12:11:09;3.60;;;2.50;;
77449;SDS011;66536;53.150;18.172;2023-05-07T12:13:38;3.90;;;2.40;;
77449;SDS011;66536;53.150;18.172;2023-05-07T12:16:05;7.10;;;1.90;;
77449;SDS011;66536;53.150;18.172;2023-05-07T12:18:33;14.60;;;12.20;;
77449;SDS011;66536;53.150;18.172;2023-05-07T12:21:01;5.80;;;2.70;;
77449;SDS011;66536;53.150;18.172;2023-05-07T12:23:29;5.00;;;2.80;;
77449;SDS011;66536;53.150;18.172;2023-05-07T12:25:56;4.40;;;2.70;;
77449;SDS011;66536;53.150;18.172;2023-05-07T12:28:24;4.00;;;2.50;;
77449;SDS011;66536;53.150;18.172;2023-05-07T12:30:50;3.40;;;2.70;;
77449;SDS011;66536;53.150;18.172;2023-05-07T12:33:23;3.70;;;2.40;;
77449;SDS011;66536;53.150;18.172;2023-05-07T12:35:50;3.30;;;2.00;;
77449;SDS011;66536;53.150;18.172;2023-05-07T12:38:16;3.80;;;2.60;;
77449;SDS011;66536;53.150;18.172;2023-05-07T12:40:48;6.10;;;3.40;;
77449;SDS011;66536;53.150;18.172;2023-05-07T12:43:17;8.20;;;3.80;;
77449;SDS011;66536;53.150;18.172;2023-05-07T12:45:50;4.60;;;2.90;;
77449;SDS011;66536;53.150;18.172;2023-05-07T12:48:17;4.20;;;2.30;;
77449;SDS011;66536;53.150;18.172;2023-05-07T12:50:44;4.60;;;2.20;;
77449;SDS011;66536;53.150;18.172;2023-05-07T12:53:12;6.10;;;3.40;;
77449;SDS011;66536;53.150;18.172;2023-05-07T12:55:42;4.50;;;2.20;;
77449;SDS011;66536;53.150;18.172;2023-05-07T13:00:57;4.90;;;2.40;;
77449;SDS011;66536;53.150;18.172;2023-05-07T13:03:31;5.10;;;2.20;;
77449;SDS011;66536;53.150;18.172;2023-05-07T13:06:02;13.80;;;7.10;;
77449;SDS011;66536;53.150;18.172;2023-05-07T13:08:36;4.40;;;2.90;;
77449;SDS011;66536;53.150;18.172;2023-05-07T13:11:07;4.90;;;2.10;;
77449;SDS011;66536;53.150;18.172;2023-05-07T13:13:35;4.10;;;1.80;;
77449;SDS011;66536;53.150;18.172;2023-05-07T13:16:01;2.80;;;1.90;;
77449;SDS011;66536;53.150;18.172;2023-05-07T13:18:30;7.60;;;3.40;;
77449;SDS011;66536;53.150;18.172;2023-05-07T13:20:58;4.60;;;2.00;;
77449;SDS011;66536;53.150;18.172;2023-05-07T13:23:27;5.20;;;2.60;;
77449;SDS011;66536;53.150;18.172;2023-05-07T13:25:55;3.10;;;1.80;;
77449;SDS011;66536;53.150;18.172;2023-05-07T13:28:24;4.00;;;1.80;;
77449;SDS011;66536;53.150;18.172;2023-05-07T13:30:54;3.60;;;2.30;;
77449;SDS011;66536;53.150;18.172;2023-05-07T13:33:20;4.40;;;2.20;;
77449;SDS011;66536;53.150;18.172;2023-05-07T13:35:50;4.60;;;2.30;;
77449;SDS011;66536;53.150;18.172;2023-05-07T13:38:16;3.30;;;2.20;;
77449;SDS011;66536;53.150;18.172;2023-05-07T13:40:44;4.30;;;2.20;;
77449;SDS011;66536;53.150;18.172;2023-05-07T13:43:10;4.70;;;2.20;;
77449;SDS011;66536;53.150;18.172;2023-05-07T13:45:36;4.90;;;2.50;;
77449;SDS011;66536;53.150;18.172;2023-05-07T13:48:02;5.70;;;2.90;;
77449;SDS011;66536;53.150;18.172;2023-05-07T13:50:29;3.60;;;2.60;;
77449;SDS011;66536;53.150;18.172;2023-05-07T13:52:55;4.30;;;2.80;;
77449;SDS011;66536;53.150;18.172;2023-05-07T13:55:21;3.20;;;1.90;;
77449;SDS011;66536;53.150;18.172;2023-05-07T13:57:56;6.40;;;2.30;;
77449;SDS011;66536;53.150;18.172;2023-05-07T14:00:27;3.50;;;1.80;;
77449;SDS011;66536;53.150;18.172;2023-05-07T14:02:54;2.50;;;1.90;;
77449;SDS011;66536;53.150;18.172;2023-05-07T14:05:21;4.90;;;2.30;;
77449;SDS011;66536;53.150;18.172;2023-05-07T14:07:50;4.50;;;2.20;;
77449;SDS011;66536;53.150;18.172;2023-05-07T14:10:18;4.10;;;2.30;;
77449;SDS011;66536;53.150;18.172;2023-05-07T14:12:46;4.90;;;2.30;;
77449;SDS011;66536;53.150;18.172;2023-05-07T14:15:13;4.10;;;2.40;;
77449;SDS011;66536;53.150;18.172;2023-05-07T14:17:39;2.70;;;1.80;;
77449;SDS011;66536;53.150;18.172;2023-05-07T14:20:05;2.70;;;1.80;;
77449;SDS011;66536;53.150;18.172;2023-05-07T14:22:34;4.30;;;2.20;;
77449;SDS011;66536;53.150;18.172;2023-05-07T14:25:01;6.00;;;2.50;;
77449;SDS011;66536;53.150;18.172;2023-05-07T14:27:29;2.20;;;2.00;;
77449;SDS011;66536;53.150;18.172;2023-05-07T14:29:56;2.90;;;2.00;;
77449;SDS011;66536;53.150;18.172;2023-05-07T14:32:22;3.00;;;2.20;;
77449;SDS011;66536;53.150;18.172;2023-05-07T14:34:48;2.80;;;1.90;;
77449;SDS011;66536;53.150;18.172;2023-05-07T14:37:15;3.00;;;2.30;;
77449;SDS011;66536;53.150;18.172;2023-05-07T14:39:40;4.50;;;2.40;;
77449;SDS011;66536;53.150;18.172;2023-05-07T14:42:07;4.10;;;2.50;;
77449;SDS011;66536;53.150;18.172;2023-05-07T14:44:34;3.80;;;2.00;;
77449;SDS011;66536;53.150;18.172;2023-05-07T14:47:01;4.40;;;2.40;;
77449;SDS011;66536;53.150;18.172;2023-05-07T14:49:28;2.70;;;2.40;;